Time;durP1;ratioP1;P1;durP2;ratioP2;P2;SDS_P1;SDS_P2;PMS_P1;PMS_P2;Temp;Humidity;BMP_temperature;BMP_pressure;BME280_temperature;BME280_humidity;BME280_pressure;Samples;Min_cycle;Max_cycle;Signal;HPM_P1;HPM_P2
2022/10/25 00:04:39;;;;;;;7.22;2.28;;;;;;;12.32;100.00;100906.00;10497928;28;20044;-63
2022/10/25 00:09:41;;;;;;;11.82;2.90;;;;;;;12.13;100.00;100905.19;10495080;28;20048;-63
2022/10/25 00:14:44;;;;;;;8.00;2.53;;;;;;;12.14;100.00;100915.59;10496845;28;20554;-65
2022/10/25 00:19:47;;;;;;;11.05;3.20;;;;;;;12.41;100.00;100916.94;10496823;28;20075;-65
2022/10/25 00:24:48;;;;;;;10.25;3.08;;;;;;;12.38;100.00;100923.19;10496611;28;20116;-63
2022/10/25 00:29:53;;;;;;;16.58;3.15;;;;;;;12.46;100.00;100917.59;10496966;28;20048;-64
2022/10/25 00:34:55;;;;;;;11.40;2.95;;;;;;;12.45;100.00;100926.34;10494607;28;20455;-64
2022/10/25 00:39:57;;;;;;;14.95;2.80;;;;;;;12.56;100.00;100921.41;10496916;28;20082;-66
2022/10/25 00:45:02;;;;;;;9.60;2.90;;;;;;;12.71;100.00;100919.84;10496562;28;20059;-64
2022/10/25 00:50:20;;;;;;;10.85;2.53;;;;;;;12.73;100.00;100930.22;10500624;28;20049;-64
2022/10/25 00:55:27;;;;;;;11.43;2.20;;;;;;;12.80;100.00;100928.97;10505209;28;20106;-67
2022/10/25 01:00:31;;;;;;;8.18;2.50;;;;;;;12.85;100.00;100932.22;10504754;28;20116;-65
2022/10/25 01:05:33;;;;;;;12.20;2.83;;;;;;;12.81;100.00;100935.94;10502173;28;20116;-65
2022/10/25 01:10:35;;;;;;;10.57;2.58;;;;;;;12.75;100.00;100926.59;10503895;28;20060;-64
2022/10/25 01:15:59;;;;;;;14.15;3.08;;;;;;;12.69;100.00;100936.53;10503677;28;20102;-65
2022/10/25 01:21:44;;;;;;;11.30;2.33;;;;;;;12.80;100.00;100942.06;10503920;28;20049;-62
2022/10/25 01:27:15;;;;;;;13.73;2.53;;;;;;;12.79;100.00;100942.16;10503794;28;20055;-62
2022/10/25 01:32:27;;;;;;;9.43;2.17;;;;;;;12.83;100.00;100949.78;10501856;28;20048;-63
2022/10/25 01:37:41;;;;;;;13.05;2.45;;;;;;;12.71;100.00;100955.63;10453162;28;20518;-63
2022/10/25 01:42:59;;;;;;;9.82;2.60;;;;;;;12.65;100.00;100951.53;10458690;28;20052;-64
2022/10/25 01:48:14;;;;;;;10.32;2.60;;;;;;;12.62;100.00;100959.53;10455440;28;20087;-65
2022/10/25 01:53:16;;;;;;;13.05;2.80;;;;;;;12.60;100.00;100954.38;10454296;28;20049;-65
2022/10/25 01:58:38;;;;;;;13.27;2.25;;;;;;;12.48;100.00;100965.44;10458902;28;20060;-63
2022/10/25 02:03:54;;;;;;;15.57;2.85;;;;;;;12.38;100.00;100959.00;10458189;28;20041;-64
2022/10/25 02:09:05;;;;;;;12.95;2.47;;;;;;;12.26;100.00;100971.75;10455393;28;20550;-65
2022/10/25 02:14:21;;;;;;;13.80;3.33;;;;;;;12.21;100.00;100968.47;10457534;28;20504;-63
2022/10/25 02:19:33;;;;;;;10.25;2.60;;;;;;;12.10;100.00;100977.69;10457335;28;20049;-64
2022/10/25 02:24:37;;;;;;;10.43;2.38;;;;;;;12.06;100.00;100981.38;10457307;28;20389;-62
2022/10/25 02:29:41;;;;;;;14.23;2.40;;;;;;;12.08;100.00;100987.38;10460728;28;20075;-63
2022/10/25 02:34:48;;;;;;;7.72;2.10;;;;;;;12.08;100.00;100979.50;10456982;28;20060;-65
2022/10/25 02:39:51;;;;;;;10.40;2.90;;;;;;;12.05;100.00;100973.56;10455135;28;20045;-64
2022/10/25 02:44:53;;;;;;;12.90;2.95;;;;;;;11.96;100.00;100983.53;10456420;28;20056;-65
2022/10/25 02:49:57;;;;;;;13.18;2.53;;;;;;;11.96;100.00;100985.28;10457007;28;20581;-64
2022/10/25 02:54:59;;;;;;;10.70;2.30;;;;;;;12.01;100.00;100988.53;10456935;28;20095;-63
2022/10/25 03:00:02;;;;;;;9.68;2.60;;;;;;;12.00;100.00;100992.06;10456669;28;20103;-64
2022/10/25 03:05:06;;;;;;;9.02;2.35;;;;;;;11.90;100.00;100996.03;10453911;28;20053;-64
2022/10/25 03:10:08;;;;;;;12.55;3.03;;;;;;;11.85;100.00;100984.00;10456081;28;20053;-65
2022/10/25 03:15:10;;;;;;;9.65;2.67;;;;;;;11.83;100.00;101001.53;10455299;28;20048;-63
2022/10/25 03:20:13;;;;;;;;;;;;;;;11.82;100.00;100993.75;10456681;28;20090;-64
2022/10/25 03:25:15;;;;;;;12.43;2.55;;;;;;;11.77;100.00;101007.03;10455761;28;19920;-63
2022/10/25 03:30:18;;;;;;;5.82;2.35;;;;;;;11.78;100.00;101014.00;10455929;28;20055;-63
2022/10/25 03:35:22;;;;;;;11.63;2.60;;;;;;;11.73;100.00;101029.00;10452791;28;20533;-64
2022/10/25 03:40:24;;;;;;;10.55;2.70;;;;;;;11.73;100.00;101031.63;10455581;28;20076;-63
2022/10/25 03:45:26;;;;;;;9.43;2.90;;;;;;;11.71;100.00;101041.31;10455143;28;20049;-62
2022/10/25 03:50:29;;;;;;;6.97;2.80;;;;;;;11.69;100.00;101041.38;10455502;28;20102;-63
2022/10/25 03:55:31;;;;;;;10.48;3.10;;;;;;;11.70;100.00;101037.84;10454530;28;20102;-62
2022/10/25 04:00:34;;;;;;;8.48;2.90;;;;;;;11.67;100.00;101051.03;10454958;28;20076;-64
2022/10/25 04:05:37;;;;;;;7.70;2.90;;;;;;;11.68;100.00;101055.38;10489531;28;20090;-65
2022/10/25 04:10:40;;;;;;;11.20;3.30;;;;;;;11.61;100.00;101058.31;10495898;28;20101;-62
2022/10/25 04:15:41;;;;;;;9.68;3.60;;;;;;;11.62;100.00;101070.44;10494976;28;20063;-63
2022/10/25 04:20:46;;;;;;;10.50;3.03;;;;;;;11.61;100.00;101053.09;10494845;28;20048;-62
2022/10/25 04:25:47;;;;;;;9.60;2.90;;;;;;;11.53;100.00;101050.81;10494980;28;20041;-64
2022/10/25 04:30:49;;;;;;;5.88;2.80;;;;;;;11.50;100.00;101062.22;10494798;28;20064;-64
2022/10/25 04:35:56;;;;;;;11.57;3.15;;;;;;;11.45;100.00;101069.41;10492270;28;20040;-64
2022/10/25 04:41:01;;;;;;;7.68;2.65;;;;;;;11.42;100.00;101072.16;10494748;28;20049;-64
2022/10/25 04:46:03;;;;;;;13.57;4.07;;;;;;;11.39;100.00;101061.84;10494504;28;20067;-63
2022/10/25 04:51:08;;;;;;;10.65;3.28;;;;;;;11.40;100.00;101061.75;10494714;28;20098;-62
2022/10/25 04:56:13;;;;;;;11.95;3.35;;;;;;;11.36;100.00;101070.66;10494337;28;20045;-62
2022/10/25 05:01:18;;;;;;;11.52;3.70;;;;;;;11.30;100.00;101074.38;10495011;28;20059;-64
2022/10/25 05:06:24;;;;;;;9.48;2.95;;;;;;;11.39;100.00;101074.94;10492319;28;20072;-63
2022/10/25 05:11:26;;;;;;;12.23;2.92;;;;;;;11.39;100.00;101077.53;10494608;28;20069;-65
2022/10/25 05:16:27;;;;;;;;;;;;;;;11.33;100.00;101087.31;10493101;28;20079;-63
2022/10/25 05:21:30;;;;;;;16.23;3.90;;;;;;;11.29;100.00;101090.97;10491915;28;19920;-62
2022/10/25 05:26:33;;;;;;;8.95;3.17;;;;;;;11.25;100.00;101099.84;10491774;28;20052;-64
2022/10/25 05:31:37;;;;;;;;;;;;;;;11.25;100.00;101099.84;10492147;28;20060;-63
2022/10/25 05:36:40;;;;;;;5.82;3.00;;;;;;;11.27;100.00;101107.63;10493580;28;19920;-63
2022/10/25 05:41:43;;;;;;;9.25;3.20;;;;;;;11.16;100.00;101105.47;10498900;28;20094;-64
2022/10/25 05:46:45;;;;;;;13.63;3.22;;;;;;;11.20;100.00;101125.31;10499002;28;20048;-65
2022/10/25 05:51:50;;;;;;;11.13;3.58;;;;;;;11.15;100.00;101122.88;10497439;28;20058;-64
2022/10/25 05:56:51;;;;;;;13.80;3.45;;;;;;;11.14;100.00;101134.25;10497146;28;20070;-63
2022/10/25 06:01:53;;;;;;;7.53;3.65;;;;;;;11.09;100.00;101141.44;10496485;28;20630;-63
2022/10/25 06:06:56;;;;;;;10.80;4.57;;;;;;;11.12;100.00;101140.44;10493919;28;20139;-63
2022/10/25 06:11:58;;;;;;;10.85;4.35;;;;;;;11.16;100.00;101147.25;10456740;28;1131336;-62
2022/10/25 06:17:00;;;;;;;8.10;4.07;;;;;;;11.27;100.00;101152.91;10498339;28;20045;-63
2022/10/25 06:22:03;;;;;;;10.85;5.03;;;;;;;11.46;100.00;101152.97;10498234;28;20085;-64
2022/10/25 06:27:06;;;;;;;13.60;4.80;;;;;;;11.55;100.00;101159.59;10500124;28;20071;-65
2022/10/25 06:32:07;;;;;;;15.10;5.53;;;;;;;11.58;100.00;101164.72;10499432;28;20052;-67
2022/10/25 06:37:12;;;;;;;8.95;5.03;;;;;;;11.62;100.00;101172.41;10455464;28;20485;-66
2022/10/25 06:42:13;;;;;;;12.73;5.22;;;;;;;11.67;100.00;101173.06;10480140;28;20079;-63
2022/10/25 06:47:16;;;;;;;17.40;6.03;;;;;;;11.69;100.00;101186.91;10482691;28;20098;-63
2022/10/25 06:52:19;;;;;;;12.52;6.10;;;;;;;11.68;100.00;101190.44;10478767;28;20099;-64
2022/10/25 06:57:21;;;;;;;18.83;6.50;;;;;;;11.69;100.00;101186.91;10456872;28;20045;-66
2022/10/25 07:02:23;;;;;;;17.02;6.07;;;;;;;11.73;100.00;101193.72;10456302;28;20075;-63
2022/10/25 07:07:26;;;;;;;12.13;5.57;;;;;;;11.79;100.00;101197.84;10453677;28;20483;-63
2022/10/25 07:12:29;;;;;;;13.52;6.32;;;;;;;11.93;100.00;101210.34;10456122;28;20056;-64
2022/10/25 07:17:30;;;;;;;13.60;6.07;;;;;;;11.97;100.00;101210.16;10455804;28;20132;-64
2022/10/25 07:22:35;;;;;;;18.85;6.35;;;;;;;12.10;100.00;101223.59;10455725;28;20049;-63
2022/10/25 07:27:36;;;;;;;16.55;5.90;;;;;;;12.21;100.00;101224.88;10456472;28;20111;-64
2022/10/25 07:32:38;;;;;;;12.48;5.90;;;;;;;12.44;100.00;101233.50;10491674;28;20053;-63
2022/10/25 07:37:41;;;;;;;10.07;4.95;;;;;;;12.51;100.00;101241.91;10470440;28;20122;-64
2022/10/25 07:42:44;;;;;;;11.82;5.55;;;;;;;12.38;100.00;101241.63;10454991;28;20118;-65
2022/10/25 07:47:46;;;;;;;10.88;4.80;;;;;;;12.42;100.00;101244.03;10454567;28;20053;-62
2022/10/25 07:52:49;;;;;;;13.45;5.05;;;;;;;12.36;100.00;101254.78;10454137;28;20057;-64
2022/10/25 07:57:50;;;;;;;15.98;5.43;;;;;;;12.36;100.00;101254.78;10453757;28;20424;-63
2022/10/25 08:02:52;;;;;;;15.23;5.22;;;;;;;12.44;100.00;101262.28;10471291;28;20069;-63
2022/10/25 08:07:55;;;;;;;12.32;5.07;;;;;;;12.51;100.00;101261.09;10493695;28;20052;-63
2022/10/25 08:12:57;;;;;;;11.18;4.80;;;;;;;12.57;100.00;101266.09;10494695;28;20091;-63
2022/10/25 08:18:01;;;;;;;11.70;5.43;;;;;;;12.58;100.00;101275.63;10495258;28;20060;-63
2022/10/25 08:23:05;;;;;;;15.20;4.80;;;;;;;12.72;100.00;101279.41;10495512;28;20106;-65
2022/10/25 08:28:07;;;;;;;10.93;5.00;;;;;;;12.62;100.00;101269.34;10494153;28;20537;-64
2022/10/25 08:33:09;;;;;;;10.30;5.22;;;;;;;12.61;100.00;101275.50;10454238;28;20074;-63
2022/10/25 08:38:12;;;;;;;12.82;5.30;;;;;;;12.76;100.00;101286.19;10447837;28;20057;-63
2022/10/25 08:43:44;;;;;;;10.13;5.25;;;;;;;12.88;100.00;101282.19;10452691;28;20463;-63
2022/10/25 08:48:52;;;;;;;10.52;5.00;;;;;;;12.92;100.00;101283.75;10449957;28;20072;-63
2022/10/25 08:54:02;;;;;;;10.60;4.60;;;;;;;13.01;100.00;101285.09;10452563;28;20479;-63
2022/10/25 08:59:05;;;;;;;11.73;4.93;;;;;;;13.23;100.00;101286.72;10452478;28;20413;-63
2022/10/25 09:04:07;;;;;;;15.60;5.15;;;;;;;13.31;100.00;101294.25;10452957;28;20057;-64
2022/10/25 09:09:28;;;;;;;10.98;4.63;;;;;;;13.34;100.00;101289.69;10451152;28;20059;-63
2022/10/25 09:14:46;;;;;;;15.63;4.00;;;;;;;13.56;100.00;101300.97;10460263;28;20053;-63
2022/10/25 09:20:18;;;;;;;10.13;4.05;;;;;;;13.88;100.00;101312.53;10419078;28;20496;-66
2022/10/25 09:25:32;;;;;;;10.07;4.43;;;;;;;14.13;100.00;101315.72;10456551;28;20044;-63
2022/10/25 09:30:42;;;;;;;9.43;3.97;;;;;;;14.04;100.00;101315.22;10468600;28;20049;-62
2022/10/25 09:35:48;;;;;;;9.00;3.90;;;;;;;14.16;100.00;101324.28;10461525;28;20458;-66
2022/10/25 09:41:01;;;;;;;10.35;3.85;;;;;;;14.19;100.00;101322.44;10501213;28;20518;-65
2022/10/25 09:46:12;;;;;;;10.10;3.30;;;;;;;14.04;100.00;101324.88;10501504;28;20507;-65
2022/10/25 09:51:27;;;;;;;9.73;3.40;;;;;;;14.06;100.00;101330.06;10500566;28;20068;-64
2022/10/25 09:56:30;;;;;;;10.50;3.53;;;;;;;13.83;100.00;101332.03;10501363;28;20078;-63
2022/10/25 10:01:38;;;;;;;9.88;3.80;;;;;;;13.80;100.00;101335.66;10500278;28;20397;-64
2022/10/25 10:06:40;;;;;;;9.90;3.67;;;;;;;13.75;100.00;101337.63;10497838;28;20412;-64
2022/10/25 10:11:47;;;;;;;10.43;3.30;;;;;;;13.70;100.00;101343.13;10499462;28;20370;-63
2022/10/25 10:16:55;;;;;;;10.60;3.58;;;;;;;13.88;100.00;101351.88;10499806;28;20170;-65
2022/10/25 10:22:01;;;;;;;12.05;3.08;;;;;;;13.80;100.00;101347.91;10499496;28;20116;-64
2022/10/25 10:27:10;;;;;;;15.18;3.35;;;;;;;13.88;100.00;101351.88;10499118;28;20496;-65
2022/10/25 10:32:25;;;;;;;7.90;3.17;;;;;;;13.69;100.00;101351.06;10499535;28;20052;-63
2022/10/25 10:37:29;;;;;;;8.77;2.88;;;;;;;13.78;100.00;101363.72;10497027;28;20074;-63
2022/10/25 10:42:38;;;;;;;13.15;3.10;;;;;;;13.87;100.00;101368.56;10498836;28;20098;-63
2022/10/25 10:47:44;;;;;;;6.18;3.10;;;;;;;13.90;100.00;101365.75;10498657;28;20054;-62
2022/10/25 10:52:56;;;;;;;11.60;3.45;;;;;;;13.96;100.00;101369.03;10498359;28;20049;-64
2022/10/25 10:58:05;;;;;;;8.55;3.03;;;;;;;14.52;100.00;101366.28;10498642;28;20056;-63
2022/10/25 11:03:48;;;;;;;6.43;2.83;;;;;;;14.33;100.00;101367.19;10499025;28;20064;-64
2022/10/25 11:09:14;;;;;;;9.18;3.40;;;;;;;14.33;100.00;101369.00;10497384;28;20051;-63
2022/10/25 11:14:20;;;;;;;12.35;3.10;;;;;;;14.38;100.00;101373.09;10471920;28;20052;-64
2022/10/25 11:19:58;;;;;;;10.07;2.95;;;;;;;14.41;100.00;101364.22;10462376;28;20506;-63
2022/10/25 11:25:21;;;;;;;9.45;3.35;;;;;;;14.84;100.00;101361.16;10496919;28;20040;-66
2022/10/25 11:30:31;;;;;;;8.50;3.17;;;;;;;15.56;100.00;101357.34;10497479;28;20048;-62
2022/10/25 11:36:00;;;;;;;7.45;2.80;;;;;;;16.39;100.00;101361.47;10494249;28;20075;-64
2022/10/25 11:41:16;;;;;;;7.60;2.75;;;;;;;16.04;100.00;101373.13;10496384;28;20554;-64
2022/10/25 11:46:31;;;;;;;8.63;2.63;;;;;;;15.19;100.00;101354.97;10496654;28;20102;-65
2022/10/25 11:51:44;;;;;;;9.50;2.75;;;;;;;15.24;100.00;101346.81;10496230;28;20054;-63
2022/10/25 11:57:00;;;;;;;9.27;2.60;;;;;;;15.08;100.00;101352.91;10491172;28;20048;-63
2022/10/25 12:02:38;;;;;;;6.72;3.05;;;;;;;15.11;100.00;101360.63;10458041;28;20053;-64
2022/10/25 12:07:52;;;;;;;14.13;2.78;;;;;;;15.37;100.00;101347.88;10482377;28;20053;-63
2022/10/25 12:13:00;;;;;;;7.78;2.35;;;;;;;15.95;100.00;101348.19;10484364;28;20121;-65
2022/10/25 12:18:06;;;;;;;9.20;2.40;;;;;;;15.84;100.00;101358.44;10450118;28;20095;-64
2022/10/25 12:23:16;;;;;;;11.82;2.90;;;;;;;15.93;100.00;101363.19;10453487;28;20111;-64
2022/10/25 12:28:27;;;;;;;13.13;2.33;;;;;;;15.93;100.00;101363.19;10453720;28;20103;-64
2022/10/25 12:33:39;;;;;;;10.65;3.25;;;;;;;15.60;100.00;101353.63;10453686;28;20045;-63
2022/10/25 12:38:41;;;;;;;8.05;2.42;;;;;;;15.97;100.00;101353.34;10450784;28;20130;-63
2022/10/25 12:43:58;;;;;;;7.13;2.28;;;;;;;15.88;100.00;101354.69;10455103;28;20072;-65
2022/10/25 12:49:32;;;;;;;6.10;2.40;;;;;;;16.41;99.15;101346.44;10461712;28;20095;-63
2022/10/25 12:55:02;;;;;;;7.50;2.45;;;;;;;16.33;96.44;101351.31;10461937;28;20048;-64
2022/10/25 13:00:12;;;;;;;7.37;2.10;;;;;;;16.31;96.87;101342.66;10461077;28;20497;-64
2022/10/25 13:06:12;;;;;;;9.70;2.50;;;;;;;16.25;96.64;101348.28;10468419;28;20102;-64
2022/10/25 13:11:14;;;;;;;6.90;2.20;;;;;;;15.96;97.03;101344.63;10462565;28;20126;-63
2022/10/25 13:16:26;;;;;;;7.35;2.10;;;;;;;15.96;97.50;101344.63;10476914;28;20091;-65
2022/10/25 13:22:10;;;;;;;4.80;2.00;;;;;;;15.78;96.43;101345.66;10467976;28;20052;-65
2022/10/25 13:27:31;;;;;;;8.02;2.22;;;;;;;16.01;100.00;101340.88;10501984;28;20044;-63
2022/10/25 13:32:35;;;;;;;8.25;2.00;;;;;;;15.82;96.07;101341.91;10501334;28;20044;-65
2022/10/25 13:37:42;;;;;;;6.75;2.00;;;;;;;16.29;99.69;101344.53;10499220;28;20106;-64
2022/10/25 13:42:45;;;;;;;8.45;2.15;;;;;;;16.35;90.10;101339.75;10501367;28;20055;-63
2022/10/25 13:47:52;;;;;;;8.65;2.63;;;;;;;16.51;93.64;101349.38;10500640;28;20060;-64
2022/10/25 13:53:03;;;;;;;7.90;2.15;;;;;;;16.17;95.35;101341.69;10500504;28;20048;-64
2022/10/25 13:58:47;;;;;;;7.68;2.00;;;;;;;15.95;92.70;101332.38;10492408;28;20068;-64
2022/10/25 14:03:52;;;;;;;6.07;1.80;;;;;;;16.34;93.31;101334.56;10422967;28;20059;-64
2022/10/25 14:09:07;;;;;;;7.50;2.22;;;;;;;16.88;91.05;101330.50;10489748;28;20046;-64
2022/10/25 14:14:29;;;;;;;3.90;1.90;;;;;;;16.71;91.41;101323.63;10498843;28;20097;-64
2022/10/25 14:19:37;;;;;;;;;;;;;;;15.87;92.55;101326.69;10460220;28;20110;-64
2022/10/25 14:24:42;;;;;;;6.50;2.03;;;;;;;15.67;96.07;101318.16;10457600;28;20481;-65
2022/10/25 14:29:43;;;;;;;8.77;2.42;;;;;;;15.93;100.00;101314.97;10459225;28;20112;-64
2022/10/25 14:34:49;;;;;;;;;;;;;;;16.05;92.48;101318.72;10459285;28;20068;-64
2022/10/25 14:39:54;;;;;;;4.43;1.80;;;;;;;16.31;94.34;101311.06;10457241;28;19927;-64
2022/10/25 14:44:56;;;;;;;7.68;1.80;;;;;;;15.86;90.87;101317.09;10459456;28;20186;-66
2022/10/25 14:50:00;;;;;;;3.42;1.60;;;;;;;16.05;92.75;101305.56;10458985;28;20057;-66
2022/10/25 14:55:06;;;;;;;3.92;1.52;;;;;;;16.03;91.34;101302.16;10458662;28;20053;-65
2022/10/25 15:00:19;;;;;;;2.45;1.63;;;;;;;15.69;91.76;101295.25;10482947;28;20102;-63
2022/10/25 15:05:24;;;;;;;6.13;2.05;;;;;;;15.44;92.65;101286.09;10497473;28;20055;-65
2022/10/25 15:10:44;;;;;;;5.30;1.75;;;;;;;15.21;94.64;101297.91;10497548;28;20461;-63
2022/10/25 15:15:48;;;;;;;6.55;1.90;;;;;;;15.03;96.10;101298.00;10498134;28;20087;-65
2022/10/25 15:21:09;;;;;;;8.10;1.80;;;;;;;15.08;95.56;101292.47;10456003;28;20064;-64
2022/10/25 15:26:27;;;;;;;4.57;1.80;;;;;;;15.32;97.04;101297.28;10457195;28;20067;-66
2022/10/25 15:31:32;;;;;;;3.63;1.70;;;;;;;15.33;96.94;101288.50;10456793;28;20053;-64
2022/10/25 15:36:34;;;;;;;3.97;1.73;;;;;;;15.22;96.24;101291.69;10454624;28;20527;-64
2022/10/25 15:41:38;;;;;;;3.22;1.52;;;;;;;15.03;98.02;101281.34;10456780;28;20065;-64
2022/10/25 15:46:40;;;;;;;5.32;1.60;;;;;;;14.89;98.00;101288.19;10456684;28;20108;-65
2022/10/25 15:51:45;;;;;;;5.43;1.98;;;;;;;14.78;99.20;101287.94;10456077;28;20048;-64
2022/10/25 15:56:49;;;;;;;6.35;1.88;;;;;;;14.60;100.00;101285.31;10456080;28;20114;-64
2022/10/25 16:01:54;;;;;;;5.30;1.90;;;;;;;14.45;100.00;101284.34;10454760;28;20041;-65
2022/10/25 16:06:56;;;;;;;2.15;1.50;;;;;;;14.27;100.00;101273.03;10452744;28;20055;-64
2022/10/25 16:12:00;;;;;;;6.72;1.70;;;;;;;14.12;100.00;101275.50;10454717;28;20099;-64
2022/10/25 16:17:01;;;;;;;4.60;1.98;;;;;;;13.98;100.00;101281.44;10489928;28;20045;-64
2022/10/25 16:22:03;;;;;;;5.32;1.90;;;;;;;13.84;100.00;101286.50;10495199;28;20117;-67
2022/10/25 16:27:06;;;;;;;6.35;1.80;;;;;;;13.75;100.00;101274.69;10495425;28;20626;-64
2022/10/25 16:32:09;;;;;;;10.32;2.17;;;;;;;13.39;100.00;101281.63;10493733;28;20122;-64
2022/10/25 16:37:11;;;;;;;5.93;2.67;;;;;;;13.13;100.00;101291.53;10490941;28;20055;-64
2022/10/25 16:42:30;;;;;;;5.00;2.25;;;;;;;13.01;100.00;101282.50;10493402;28;20059;-64
2022/10/25 16:47:32;;;;;;;8.48;2.35;;;;;;;12.91;100.00;101283.81;10493686;28;20040;-64
2022/10/25 16:52:34;;;;;;;11.80;2.38;;;;;;;12.46;100.00;101289.25;10493252;28;20052;-64
2022/10/25 16:57:37;;;;;;;6.85;1.98;;;;;;;12.17;100.00;101286.09;10493557;28;20101;-64
2022/10/25 17:02:38;;;;;;;5.28;1.98;;;;;;;11.83;100.00;101278.72;10493000;28;20110;-65
2022/10/25 17:07:44;;;;;;;5.95;1.95;;;;;;;11.53;100.00;101275.59;10491164;28;20064;-64
2022/10/25 17:12:50;;;;;;;6.82;2.08;;;;;;;11.33;100.00;101267.59;10493856;28;20504;-64
2022/10/25 17:17:51;;;;;;;12.27;2.80;;;;;;;11.13;100.00;101262.28;10494312;28;20044;-64
2022/10/25 17:22:54;;;;;;;12.55;3.00;;;;;;;10.94;100.00;101262.97;10493889;28;20497;-64
2022/10/25 17:27:57;;;;;;;10.10;2.60;;;;;;;10.80;100.00;101261.75;10461069;28;20052;-65
2022/10/25 17:32:58;;;;;;;10.35;2.72;;;;;;;10.69;100.00;101264.75;10457364;28;20107;-64
2022/10/25 17:38:00;;;;;;;15.48;3.30;;;;;;;10.60;100.00;101259.00;10456522;28;20080;-65
2022/10/25 17:43:03;;;;;;;8.75;3.35;;;;;;;10.49;100.00;101259.38;10459430;28;20059;-64
2022/10/25 17:48:05;;;;;;;12.70;2.85;;;;;;;10.34;100.00;101258.13;10459393;28;20049;-65
2022/10/25 17:53:09;;;;;;;10.13;3.58;;;;;;;10.22;100.00;101265.47;10459253;28;20057;-65
2022/10/25 17:58:11;;;;;;;9.88;3.38;;;;;;;10.07;100.00;101260.78;10459065;28;20563;-66
2022/10/25 18:03:15;;;;;;;14.35;3.85;;;;;;;10.00;100.00;101266.22;10472464;28;20072;-65
2022/10/25 18:08:16;;;;;;;6.55;3.45;;;;;;;9.97;100.00;101268.91;10496789;28;20052;-66
2022/10/25 18:13:22;;;;;;;12.50;4.05;;;;;;;9.86;100.00;101273.63;10499882;28;20052;-64
2022/10/25 18:18:24;;;;;;;11.88;4.03;;;;;;;9.84;100.00;101265.00;10499979;28;20048;-64
2022/10/25 18:23:25;;;;;;;11.13;3.90;;;;;;;9.72;100.00;101264.47;10499470;28;20044;-64
2022/10/25 18:28:29;;;;;;;17.85;4.22;;;;;;;9.67;100.00;101258.56;10499590;28;20109;-63
2022/10/25 18:33:31;;;;;;;11.80;4.18;;;;;;;9.64;100.00;101259.53;10498839;28;20088;-64
2022/10/25 18:38:34;;;;;;;21.77;4.70;;;;;;;9.60;100.00;101260.53;10464795;28;20371;-64
2022/10/25 18:43:37;;;;;;;18.95;4.47;;;;;;;9.50;100.00;101252.16;10496838;28;20052;-65
2022/10/25 18:48:39;;;;;;;20.48;4.85;;;;;;;9.45;100.00;101243.63;10496420;28;20102;-64
2022/10/25 18:53:41;;;;;;;13.57;4.15;;;;;;;9.38;100.00;101247.34;10496885;28;20076;-64
2022/10/25 18:58:44;;;;;;;16.08;4.22;;;;;;;9.33;100.00;101244.00;10496191;28;20082;-64
2022/10/25 19:03:46;;;;;;;17.50;3.90;;;;;;;9.32;100.00;101234.47;10496857;28;20052;-65
2022/10/25 19:08:49;;;;;;;16.38;4.22;;;;;;;9.21;100.00;101240.84;10494088;28;20044;-64
2022/10/25 19:13:55;;;;;;;17.30;4.10;;;;;;;9.13;100.00;101237.63;10496205;28;20055;-64
2022/10/25 19:18:56;;;;;;;12.82;4.57;;;;;;;9.11;100.00;101229.03;10496022;28;20110;-63
2022/10/25 19:23:58;;;;;;;13.52;4.63;;;;;;;9.06;100.00;101220.53;10496748;28;20049;-64
2022/10/25 19:29:01;;;;;;;11.55;4.32;;;;;;;9.04;100.00;101222.31;10497216;28;20044;-66
2022/10/25 19:34:03;;;;;;;9.15;5.13;;;;;;;8.94;100.00;101222.59;10459660;28;20516;-64
2022/10/25 19:39:05;;;;;;;10.40;5.20;;;;;;;8.79;100.00;101218.66;10452059;28;20045;-67
2022/10/25 19:44:08;;;;;;;13.40;5.28;;;;;;;8.74;100.00;101213.63;10444686;28;20075;-64
2022/10/25 19:49:10;;;;;;;11.35;5.25;;;;;;;8.89;100.00;101216.66;10443777;28;20053;-65
2022/10/25 19:54:11;;;;;;;;;;;;;;;8.79;100.00;101213.47;10453907;28;20468;-65
2022/10/25 19:59:15;;;;;;;10.75;4.85;;;;;;;8.79;100.00;101208.25;10454072;28;19921;-65
2022/10/25 20:04:16;;;;;;;22.30;5.45;;;;;;;8.67;100.00;101201.66;10453839;28;20041;-65
2022/10/25 20:09:18;;;;;;;17.65;5.43;;;;;;;8.64;100.00;101196.53;10451045;28;20056;-65
2022/10/25 20:14:21;;;;;;;;;;;;;;;8.69;100.00;101199.03;10453398;28;20056;-65
2022/10/25 20:19:23;;;;;;;18.23;5.38;;;;;;;8.66;100.00;101205.19;10453674;28;19955;-67
2022/10/25 20:24:25;;;;;;;11.80;5.75;;;;;;;8.58;100.00;101199.31;10453833;28;20057;-66
2022/10/25 20:29:28;;;;;;;12.82;5.22;;;;;;;8.57;100.00;101197.63;10484400;28;20049;-65
2022/10/25 20:34:31;;;;;;;19.15;6.55;;;;;;;8.65;100.00;101187.84;10494926;28;20544;-66
2022/10/25 20:39:32;;;;;;;13.70;5.70;;;;;;;8.58;100.00;101191.50;10492265;28;20638;-66
2022/10/25 20:44:35;;;;;;;23.45;7.60;;;;;;;8.57;100.00;101187.22;10495217;28;20279;-66
2022/10/25 20:49:37;;;;;;;15.52;7.15;;;;;;;8.58;100.00;101188.91;10494742;28;20101;-65
2022/10/25 20:54:38;;;;;;;17.10;6.93;;;;;;;8.72;100.00;101202.38;10494496;28;20460;-66
2022/10/25 20:59:41;;;;;;;17.08;7.45;;;;;;;8.75;100.00;101186.69;10494756;28;20106;-66
2022/10/25 21:04:43;;;;;;;19.35;6.20;;;;;;;8.99;100.00;101173.84;10495243;28;20052;-65
2022/10/25 21:09:45;;;;;;;16.02;6.38;;;;;;;8.98;100.00;101173.88;10500732;28;20072;-66
2022/10/25 21:14:49;;;;;;;19.80;6.32;;;;;;;8.97;100.00;101175.63;10502180;28;20496;-66
2022/10/25 21:19:51;;;;;;;16.38;5.95;;;;;;;9.00;100.00;101172.94;10502658;28;20508;-64
2022/10/25 21:24:52;;;;;;;18.30;7.10;;;;;;;9.08;100.00;101169.25;10502487;28;20052;-65
2022/10/25 21:29:55;;;;;;;16.63;7.60;;;;;;;8.99;100.00;101167.75;10501581;28;20476;-66
2022/10/25 21:34:57;;;;;;;20.98;7.70;;;;;;;8.95;100.00;101167.03;10502082;28;20048;-65
2022/10/25 21:39:58;;;;;;;18.67;6.78;;;;;;;8.92;100.00;101172.31;10498573;28;20067;-65
2022/10/25 21:45:03;;;;;;;22.80;8.07;;;;;;;8.86;100.00;101169.91;10501429;28;20098;-65
2022/10/25 21:50:08;;;;;;;20.08;7.18;;;;;;;8.76;100.00;101174.53;10500867;28;20114;-65
2022/10/25 21:55:09;;;;;;;21.23;7.95;;;;;;;8.74;100.00;101169.38;10500484;28;20049;-66
2022/10/25 22:00:13;;;;;;;18.80;7.78;;;;;;;8.79;100.00;101176.19;10500743;28;20049;-65
2022/10/25 22:05:15;;;;;;;15.43;8.30;;;;;;;8.88;100.00;101181.13;10499448;28;20070;-64
2022/10/25 22:10:17;;;;;;;17.77;7.82;;;;;;;8.80;100.00;101167.47;10499898;28;20044;-65
2022/10/25 22:15:21;;;;;;;18.00;7.97;;;;;;;8.71;100.00;101168.59;10499758;28;20076;-64
2022/10/25 22:20:23;;;;;;;16.63;8.75;;;;;;;8.69;100.00;101176.44;10499750;28;20109;-65
2022/10/25 22:25:25;;;;;;;20.63;8.95;;;;;;;8.78;100.00;101175.31;10499584;28;20102;-66
2022/10/25 22:30:27;;;;;;;20.65;8.57;;;;;;;8.65;100.00;101169.63;10499381;28;20098;-66
2022/10/25 22:35:29;;;;;;;20.05;9.05;;;;;;;8.81;100.00;101169.19;10496784;28;20419;-66
2022/10/25 22:40:31;;;;;;;23.17;9.55;;;;;;;8.71;100.00;101159.06;10499569;28;20139;-65
2022/10/25 22:45:35;;;;;;;21.08;9.38;;;;;;;8.72;100.00;101159.88;10499071;28;20064;-65
2022/10/25 22:50:37;;;;;;;14.80;8.90;;;;;;;8.73;100.00;101149.44;10498643;28;20075;-65
2022/10/25 22:55:39;;;;;;;18.05;9.73;;;;;;;8.76;100.00;101141.53;10498487;28;20072;-64
2022/10/25 23:00:42;;;;;;;18.88;9.20;;;;;;;8.80;100.00;101147.53;10498442;28;20075;-65
2022/10/25 23:05:43;;;;;;;23.77;10.05;;;;;;;8.82;100.00;101145.72;10495639;28;20432;-64
2022/10/25 23:10:45;;;;;;;18.85;9.57;;;;;;;8.88;100.00;101134.25;10498467;28;20048;-65
2022/10/25 23:15:48;;;;;;;20.13;9.80;;;;;;;8.88;100.00;101134.25;10497344;28;20114;-65